createdAt,value
2022-11-12T09:48:22.301Z,0.43
2022-11-12T09:54:01.980Z,0.40
2022-11-12T09:59:16.106Z,0.50
2022-11-12T10:04:27.514Z,0.60
2022-11-12T10:09:39.200Z,0.40
2022-11-12T10:14:48.801Z,0.50
2022-11-12T10:20:00.362Z,0.50
2022-11-12T10:25:11.771Z,0.50
2022-11-12T10:30:24.083Z,0.57
2022-11-12T10:35:32.644Z,0.50
2022-11-12T10:40:43.283Z,0.40
2022-11-12T10:45:53.155Z,0.73
2022-11-12T10:51:04.241Z,0.60
2022-11-12T10:56:15.674Z,0.50
2022-11-12T11:01:24.193Z,0.60
2022-11-12T11:06:32.956Z,0.50
2022-11-12T11:11:44.732Z,0.57
2022-11-12T11:16:56.051Z,0.60
2022-11-12T11:22:07.236Z,0.60
2022-11-12T11:27:41.065Z,0.60
2022-11-12T11:32:50.755Z,0.70
2022-11-12T11:38:02.875Z,0.57
2022-11-12T11:43:14.283Z,0.50
2022-11-12T11:48:26.039Z,0.50
2022-11-12T11:53:37.785Z,0.80
2022-11-12T11:58:48.098Z,0.80
2022-11-12T12:03:59.669Z,0.90
2022-11-12T12:09:09.329Z,0.67
2022-11-12T12:14:18.999Z,1.00
2022-11-12T12:19:30.393Z,0.80
2022-11-12T12:24:42.154Z,0.80
2022-11-12T12:29:53.685Z,0.80
2022-11-12T12:35:05.226Z,0.60
2022-11-12T12:40:18.552Z,0.60
2022-11-12T12:45:35.615Z,0.47
2022-11-12T12:50:43.124Z,0.70
2022-11-12T12:55:55.936Z,0.63
2022-11-12T13:01:08.522Z,0.70
2022-11-12T13:06:19.937Z,0.90
2022-11-12T13:11:32.898Z,0.90
2022-11-12T13:16:44.366Z,0.70
2022-11-12T13:21:55.864Z,0.60
2022-11-12T13:27:04.341Z,0.50
2022-11-12T13:32:15.806Z,0.60
2022-11-12T13:37:24.639Z,0.60
2022-11-12T13:42:36.360Z,0.70
2022-11-12T13:47:46.879Z,0.57
2022-11-12T13:52:55.527Z,0.53
2022-11-12T13:58:04.098Z,0.57
2022-11-12T14:03:15.536Z,0.50
2022-11-12T14:08:25.393Z,0.80
2022-11-12T14:13:46.549Z,0.60
2022-11-12T14:18:57.964Z,0.70
2022-11-12T14:24:08.668Z,1.00
2022-11-12T14:29:18.886Z,0.70
2022-11-12T14:34:28.480Z,0.67
2022-11-12T14:39:39.945Z,0.90
2022-11-12T14:44:48.597Z,1.10
2022-11-12T14:49:57.516Z,0.90
2022-11-12T14:55:08.951Z,1.20
2022-11-12T15:00:20.480Z,1.00
2022-11-12T15:05:29.692Z,0.90
2022-11-12T15:10:41.215Z,0.70
2022-11-12T15:15:52.852Z,0.60
2022-11-12T15:21:02.404Z,0.70
2022-11-12T15:26:14.308Z,0.60
2022-11-12T15:31:23.901Z,0.70
2022-11-12T15:36:33.531Z,0.60
2022-11-12T15:41:42.324Z,1.10
2022-11-12T15:46:50.857Z,0.80
2022-11-12T15:51:59.710Z,0.70
2022-11-12T15:57:14.255Z,0.70
2022-11-12T16:02:22.927Z,0.80
2022-11-12T16:07:31.524Z,1.30
2022-11-12T16:12:40.335Z,1.10
2022-11-12T16:17:49.947Z,0.70
2022-11-12T16:22:59.204Z,0.80
2022-11-12T16:28:11.214Z,0.80
2022-11-12T16:33:19.774Z,0.97
2022-11-12T16:38:28.437Z,0.90
2022-11-12T16:43:37.052Z,0.70
2022-11-12T16:48:45.470Z,0.70
2022-11-12T16:53:54.135Z,0.70
2022-11-12T16:59:02.935Z,0.80
2022-11-12T17:04:11.674Z,1.30
2022-11-12T17:09:20.247Z,1.30
2022-11-12T17:14:28.788Z,0.90
2022-11-12T17:19:37.326Z,0.90
2022-11-12T17:24:48.559Z,0.70
2022-11-12T17:29:57.353Z,0.73
2022-11-12T17:35:06.370Z,0.90
2022-11-12T17:40:14.964Z,0.70
2022-11-12T17:45:23.694Z,0.50
2022-11-12T17:50:32.358Z,0.83
2022-11-12T17:55:41.465Z,1.60
2022-11-12T18:00:51.823Z,1.27
2022-11-12T18:06:01.659Z,1.00
2022-11-12T18:11:11.854Z,0.90
2022-11-12T18:16:21.856Z,0.90
2022-11-12T18:21:31.052Z,0.77
2022-11-12T18:26:39.580Z,0.73
2022-11-12T18:31:49.721Z,0.80
2022-11-12T18:36:58.228Z,0.70
2022-11-12T18:42:06.960Z,1.00
2022-11-12T18:47:15.636Z,0.70
2022-11-12T18:52:24.992Z,0.70
2022-11-12T18:57:33.893Z,0.60
2022-11-12T19:02:43.483Z,0.83
2022-11-12T19:07:52.799Z,0.70
2022-11-12T19:13:02.875Z,0.70
2022-11-12T19:18:12.969Z,0.80
2022-11-12T19:23:21.610Z,0.90
2022-11-12T19:28:31.417Z,0.60
2022-11-12T19:33:40.497Z,0.60
2022-11-12T19:38:50.945Z,0.50
2022-11-12T19:43:59.764Z,0.60
2022-11-12T19:49:08.343Z,0.50
2022-11-12T19:54:17.447Z,0.60
2022-11-12T19:59:26.215Z,0.70
2022-11-12T20:04:35.127Z,0.57
2022-11-12T20:09:44.911Z,0.60
2022-11-12T20:14:54.796Z,0.63
2022-11-12T20:20:03.480Z,0.50
2022-11-12T20:25:12.029Z,0.60
2022-11-12T20:30:20.960Z,0.50
2022-11-12T20:35:29.462Z,0.60
2022-11-12T20:40:38.133Z,0.70
2022-11-12T20:45:49.729Z,0.90
2022-11-12T20:51:22.567Z,0.50
2022-11-12T20:56:17.717Z,0.60
2022-11-12T21:01:27.704Z,0.50
2022-11-12T21:06:36.992Z,0.50
2022-11-12T21:11:46.932Z,0.60
2022-11-12T21:16:55.545Z,0.50
2022-11-12T21:22:04.120Z,0.60
2022-11-12T21:27:14.078Z,0.60
2022-11-12T21:32:22.642Z,0.57
2022-11-12T21:37:31.216Z,0.50
2022-11-12T21:42:43.276Z,0.50
2022-11-12T21:47:52.083Z,0.70
2022-11-12T21:53:00.662Z,0.50
2022-11-12T21:58:09.208Z,0.50
2022-11-12T22:03:17.603Z,0.63
2022-11-12T22:08:27.243Z,0.60
2022-11-12T22:13:36.896Z,0.50
2022-11-12T22:18:48.415Z,0.50
2022-11-12T22:23:58.657Z,0.50
2022-11-12T22:29:07.520Z,0.50
2022-11-12T22:34:16.274Z,0.50
2022-11-12T22:39:24.754Z,0.60
2022-11-12T22:44:33.540Z,0.53
2022-11-12T22:49:42.254Z,0.60
2022-11-12T22:54:51.008Z,0.73
2022-11-12T22:59:59.530Z,0.70
2022-11-12T23:05:08.195Z,0.50
2022-11-12T23:10:16.943Z,0.70
2022-11-12T23:15:25.446Z,0.80
2022-11-12T23:20:34.092Z,0.60
2022-11-12T23:25:42.911Z,0.50
2022-11-12T23:30:51.754Z,0.50
2022-11-12T23:36:03.477Z,0.50
2022-11-12T23:41:14.212Z,0.50
2022-11-12T23:46:23.291Z,0.60
2022-11-12T23:51:32.347Z,0.50
2022-11-12T23:56:41.221Z,0.50
